Arnesen, Minnesota
Current Conditions -  °F | °C
As of 3:54 PM on Thursday 27 Nov 2014 (Local Time) from KRRT Reporting Station
Clear Clear  
Wind Chill: -6°   Ceiling: Unl
Heat Index:   Visibility: 10mi
Dew Point: -6°   Wind: 5mph
Humidity: 66%   Direction: 170°S
Pressure: 30.31"   Gusts: NA
Location:  48.6345°N, 95.1786°W
Report Text: KRRT 272154Z AUTO 17004KT 10SM CLR M16/M21 A3031 RMK AO2
Loading
Personal Weather Stations






























Interactive Weather Map New forecast layout! Learn more

10-Day Weather Forecast

Advertisements
Track Severe Weather on mobile